sensor_id;sensor_type;location;lat;lon;timestamp;temperature;humidity
24103;DHT22;12278;53.058;9.028;2023-05-10T00:03:24;15.80;99.90
24103;DHT22;12278;53.058;9.028;2023-05-10T00:07:25;15.80;99.90
24103;DHT22;12278;53.058;9.028;2023-05-10T00:11:25;15.70;99.90
24103;DHT22;12278;53.058;9.028;2023-05-10T00:15:26;15.70;99.90
24103;DHT22;12278;53.058;9.028;2023-05-10T00:19:27;15.70;99.90
24103;DHT22;12278;53.058;9.028;2023-05-10T00:23:27;15.70;99.90
24103;DHT22;12278;53.058;9.028;2023-05-10T00:27:28;15.60;99.90
24103;DHT22;12278;53.058;9.028;2023-05-10T00:31:29;15.70;99.90
24103;DHT22;12278;53.058;9.028;2023-05-10T00:35:29;15.70;99.90
24103;DHT22;12278;53.058;9.028;2023-05-10T00:39:30;15.60;99.90
24103;DHT22;12278;53.058;9.028;2023-05-10T00:43:31;15.60;99.90
24103;DHT22;12278;53.058;9.028;2023-05-10T00:47:32;15.60;99.90
24103;DHT22;12278;53.058;9.028;2023-05-10T00:51:32;15.50;99.90
24103;DHT22;12278;53.058;9.028;2023-05-10T00:55:33;15.50;98.20
24103;DHT22;12278;53.058;9.028;2023-05-10T00:59:34;15.60;97.70
24103;DHT22;12278;53.058;9.028;2023-05-10T01:03:36;15.60;98.70
24103;DHT22;12278;53.058;9.028;2023-05-10T01:07:36;15.60;98.40
24103;DHT22;12278;53.058;9.028;2023-05-10T01:11:38;15.50;98.60
24103;DHT22;12278;53.058;9.028;2023-05-10T01:15:40;15.50;98.90
24103;DHT22;12278;53.058;9.028;2023-05-10T01:19:41;15.50;99.10
24103;DHT22;12278;53.058;9.028;2023-05-10T01:36:32;15.40;99.10
24103;DHT22;12278;53.058;9.028;2023-05-10T01:40:39;15.40;98.50
24103;DHT22;12278;53.058;9.028;2023-05-10T01:48:53;15.40;98.90
24103;DHT22;12278;53.058;9.028;2023-05-10T01:52:56;15.40;99.50
24103;DHT22;12278;53.058;9.028;2023-05-10T01:57:05;15.30;99.80
24103;DHT22;12278;53.058;9.028;2023-05-10T02:01:08;15.20;99.10
24103;DHT22;12278;53.058;9.028;2023-05-10T02:05:12;15.30;99.20
24103;DHT22;12278;53.058;9.028;2023-05-10T02:09:14;15.30;99.90
24103;DHT22;12278;53.058;9.028;2023-05-10T02:13:16;15.30;99.90
24103;DHT22;12278;53.058;9.028;2023-05-10T02:17:18;15.20;99.90
24103;DHT22;12278;53.058;9.028;2023-05-10T02:21:21;15.20;99.90
24103;DHT22;12278;53.058;9.028;2023-05-10T02:25:23;15.20;99.90
24103;DHT22;12278;53.058;9.028;2023-05-10T02:29:26;15.10;99.90
24103;DHT22;12278;53.058;9.028;2023-05-10T02:33:28;15.10;99.90
24103;DHT22;12278;53.058;9.028;2023-05-10T02:37:29;15.10;99.90
24103;DHT22;12278;53.058;9.028;2023-05-10T02:41:32;15.00;99.90
24103;DHT22;12278;53.058;9.028;2023-05-10T02:45:34;15.00;99.90
24103;DHT22;12278;53.058;9.028;2023-05-10T02:49:36;15.00;99.90
24103;DHT22;12278;53.058;9.028;2023-05-10T02:53:38;15.00;99.90
24103;DHT22;12278;53.058;9.028;2023-05-10T02:57:51;14.90;99.90
24103;DHT22;12278;53.058;9.028;2023-05-10T03:01:53;15.00;99.90
24103;DHT22;12278;53.058;9.028;2023-05-10T03:05:54;14.90;99.90
24103;DHT22;12278;53.058;9.028;2023-05-10T03:09:56;14.90;99.90
24103;DHT22;12278;53.058;9.028;2023-05-10T03:22:12;14.70;99.90
24103;DHT22;12278;53.058;9.028;2023-05-10T03:26:20;14.70;99.90
24103;DHT22;12278;53.058;9.028;2023-05-10T03:30:21;14.70;99.90
24103;DHT22;12278;53.058;9.028;2023-05-10T03:34:25;14.70;99.90
24103;DHT22;12278;53.058;9.028;2023-05-10T03:38:25;14.70;99.90
24103;DHT22;12278;53.058;9.028;2023-05-10T03:42:26;14.70;99.90
24103;DHT22;12278;53.058;9.028;2023-05-10T03:46:27;14.60;99.90
24103;DHT22;12278;53.058;9.028;2023-05-10T03:50:27;14.60;99.90
24103;DHT22;12278;53.058;9.028;2023-05-10T03:54:28;14.60;99.90
24103;DHT22;12278;53.058;9.028;2023-05-10T03:58:29;14.60;99.90
24103;DHT22;12278;53.058;9.028;2023-05-10T04:02:29;14.60;99.90
24103;DHT22;12278;53.058;9.028;2023-05-10T04:06:30;14.60;99.90
24103;DHT22;12278;53.058;9.028;2023-05-10T04:10:32;14.50;99.90
24103;DHT22;12278;53.058;9.028;2023-05-10T04:14:32;14.60;99.90
24103;DHT22;12278;53.058;9.028;2023-05-10T04:18:33;14.50;99.90
24103;DHT22;12278;53.058;9.028;2023-05-10T04:22:34;14.50;99.90
24103;DHT22;12278;53.058;9.028;2023-05-10T04:26:35;14.50;99.90
24103;DHT22;12278;53.058;9.028;2023-05-10T04:30:35;14.40;99.90
24103;DHT22;12278;53.058;9.028;2023-05-10T04:34:36;14.40;99.90
24103;DHT22;12278;53.058;9.028;2023-05-10T04:38:37;14.50;99.90
24103;DHT22;12278;53.058;9.028;2023-05-10T04:42:40;14.40;99.90
24103;DHT22;12278;53.058;9.028;2023-05-10T04:46:41;14.30;99.90
24103;DHT22;12278;53.058;9.028;2023-05-10T04:50:42;14.30;99.90
24103;DHT22;12278;53.058;9.028;2023-05-10T04:54:42;14.30;99.90
24103;DHT22;12278;53.058;9.028;2023-05-10T04:58:43;14.30;99.90
24103;DHT22;12278;53.058;9.028;2023-05-10T05:02:45;14.30;99.90
24103;DHT22;12278;53.058;9.028;2023-05-10T05:06:45;14.30;99.90
24103;DHT22;12278;53.058;9.028;2023-05-10T05:10:48;14.20;99.90
24103;DHT22;12278;53.058;9.028;2023-05-10T05:14:50;14.10;99.90
24103;DHT22;12278;53.058;9.028;2023-05-10T05:18:51;14.00;99.90
24103;DHT22;12278;53.058;9.028;2023-05-10T05:22:52;14.00;99.90
24103;DHT22;12278;53.058;9.028;2023-05-10T05:26:52;13.90;99.90
24103;DHT22;12278;53.058;9.028;2023-05-10T05:30:53;13.90;99.90
24103;DHT22;12278;53.058;9.028;2023-05-10T05:34:54;13.90;99.90
24103;DHT22;12278;53.058;9.028;2023-05-10T05:38:54;13.90;99.90
24103;DHT22;12278;53.058;9.028;2023-05-10T05:42:55;13.40;99.90
24103;DHT22;12278;53.058;9.028;2023-05-10T05:46:56;13.10;99.90
24103;DHT22;12278;53.058;9.028;2023-05-10T05:50:57;13.20;99.90
24103;DHT22;12278;53.058;9.028;2023-05-10T05:54:57;13.20;99.90
24103;DHT22;12278;53.058;9.028;2023-05-10T05:58:58;13.30;99.90
24103;DHT22;12278;53.058;9.028;2023-05-10T06:02:59;13.30;99.90
24103;DHT22;12278;53.058;9.028;2023-05-10T06:06:59;13.30;99.90
24103;DHT22;12278;53.058;9.028;2023-05-10T06:11:00;13.10;99.90
24103;DHT22;12278;53.058;9.028;2023-05-10T06:15:02;13.00;99.90
24103;DHT22;12278;53.058;9.028;2023-05-10T06:19:03;13.20;99.90
24103;DHT22;12278;53.058;9.028;2023-05-10T06:23:03;13.10;99.90
24103;DHT22;12278;53.058;9.028;2023-05-10T06:27:04;13.20;99.90
24103;DHT22;12278;53.058;9.028;2023-05-10T06:31:05;13.30;99.90
24103;DHT22;12278;53.058;9.028;2023-05-10T06:35:07;13.20;99.90
24103;DHT22;12278;53.058;9.028;2023-05-10T06:39:08;13.10;99.90
24103;DHT22;12278;53.058;9.028;2023-05-10T06:43:10;13.00;99.90
24103;DHT22;12278;53.058;9.028;2023-05-10T06:47:10;13.00;99.90
24103;DHT22;12278;53.058;9.028;2023-05-10T06:51:11;12.90;99.90
24103;DHT22;12278;53.058;9.028;2023-05-10T06:55:12;12.70;99.90
24103;DHT22;12278;53.058;9.028;2023-05-10T06:59:12;12.60;99.90
24103;DHT22;12278;53.058;9.028;2023-05-10T07:03:15;12.40;99.90
24103;DHT22;12278;53.058;9.028;2023-05-10T07:07:16;12.40;99.90
24103;DHT22;12278;53.058;9.028;2023-05-10T07:11:16;12.50;99.90
24103;DHT22;12278;53.058;9.028;2023-05-10T07:15:17;12.40;99.90
24103;DHT22;12278;53.058;9.028;2023-05-10T07:19:18;12.40;99.90
24103;DHT22;12278;53.058;9.028;2023-05-10T07:23:19;12.30;99.90
24103;DHT22;12278;53.058;9.028;2023-05-10T07:27:20;12.30;99.90
24103;DHT22;12278;53.058;9.028;2023-05-10T07:31:21;12.40;99.90
24103;DHT22;12278;53.058;9.028;2023-05-10T07:35:21;12.70;99.90
24103;DHT22;12278;53.058;9.028;2023-05-10T07:39:34;13.00;99.90
24103;DHT22;12278;53.058;9.028;2023-05-10T07:43:35;13.10;99.90
24103;DHT22;12278;53.058;9.028;2023-05-10T07:47:36;13.50;99.90
24103;DHT22;12278;53.058;9.028;2023-05-10T07:51:36;13.40;99.90
24103;DHT22;12278;53.058;9.028;2023-05-10T07:55:37;13.50;99.90
24103;DHT22;12278;53.058;9.028;2023-05-10T07:59:38;13.50;99.90
24103;DHT22;12278;53.058;9.028;2023-05-10T08:03:39;13.60;99.90
24103;DHT22;12278;53.058;9.028;2023-05-10T08:07:39;13.70;99.90
24103;DHT22;12278;53.058;9.028;2023-05-10T08:11:40;13.80;99.90
24103;DHT22;12278;53.058;9.028;2023-05-10T08:15:41;13.70;99.90
24103;DHT22;12278;53.058;9.028;2023-05-10T08:19:41;13.90;99.90
24103;DHT22;12278;53.058;9.028;2023-05-10T08:23:42;13.90;99.90
24103;DHT22;12278;53.058;9.028;2023-05-10T08:27:43;14.20;99.90
24103;DHT22;12278;53.058;9.028;2023-05-10T08:31:44;14.30;99.90
24103;DHT22;12278;53.058;9.028;2023-05-10T08:35:45;14.60;99.90
24103;DHT22;12278;53.058;9.028;2023-05-10T08:39:45;14.90;99.90
24103;DHT22;12278;53.058;9.028;2023-05-10T08:43:49;14.80;99.90
24103;DHT22;12278;53.058;9.028;2023-05-10T08:47:50;14.80;99.90
24103;DHT22;12278;53.058;9.028;2023-05-10T08:51:54;15.10;99.90
24103;DHT22;12278;53.058;9.028;2023-05-10T08:55:56;15.30;99.90
24103;DHT22;12278;53.058;9.028;2023-05-10T08:59:58;15.40;99.90
24103;DHT22;12278;53.058;9.028;2023-05-10T09:03:59;15.60;99.90
24103;DHT22;12278;53.058;9.028;2023-05-10T09:08:00;15.70;99.90
24103;DHT22;12278;53.058;9.028;2023-05-10T09:12:01;15.60;99.90
24103;DHT22;12278;53.058;9.028;2023-05-10T09:16:02;15.60;99.90
24103;DHT22;12278;53.058;9.028;2023-05-10T09:20:04;15.50;99.90
24103;DHT22;12278;53.058;9.028;2023-05-10T09:24:08;15.70;99.90
24103;DHT22;12278;53.058;9.028;2023-05-10T09:28:10;15.70;99.90
24103;DHT22;12278;53.058;9.028;2023-05-10T09:32:16;15.80;99.90
24103;DHT22;12278;53.058;9.028;2023-05-10T09:36:18;15.70;99.90
24103;DHT22;12278;53.058;9.028;2023-05-10T09:40:24;16.10;99.90
24103;DHT22;12278;53.058;9.028;2023-05-10T09:44:26;16.70;99.90
24103;DHT22;12278;53.058;9.028;2023-05-10T09:48:27;16.80;99.90
24103;DHT22;12278;53.058;9.028;2023-05-10T09:52:27;16.20;99.90
24103;DHT22;12278;53.058;9.028;2023-05-10T09:56:35;16.50;99.90
24103;DHT22;12278;53.058;9.028;2023-05-10T10:00:38;17.00;99.90
24103;DHT22;12278;53.058;9.028;2023-05-10T10:04:42;16.90;99.90
24103;DHT22;12278;53.058;9.028;2023-05-10T10:08:43;16.50;99.90
24103;DHT22;12278;53.058;9.028;2023-05-10T10:12:44;16.20;99.90
24103;DHT22;12278;53.058;9.028;2023-05-10T10:16:45;16.20;99.90
24103;DHT22;12278;53.058;9.028;2023-05-10T10:20:46;16.80;99.90
24103;DHT22;12278;53.058;9.028;2023-05-10T10:24:47;17.50;99.90
24103;DHT22;12278;53.058;9.028;2023-05-10T10:28:56;18.20;99.90
24103;DHT22;12278;53.058;9.028;2023-05-10T10:37:08;17.20;99.90
24103;DHT22;12278;53.058;9.028;2023-05-10T10:41:10;17.00;99.90
24103;DHT22;12278;53.058;9.028;2023-05-10T10:45:12;16.80;99.90
24103;DHT22;12278;53.058;9.028;2023-05-10T10:49:19;16.20;99.90
24103;DHT22;12278;53.058;9.028;2023-05-10T10:53:28;16.00;99.90
24103;DHT22;12278;53.058;9.028;2023-05-10T11:01:41;15.90;99.90
24103;DHT22;12278;53.058;9.028;2023-05-10T11:05:58;16.10;99.90
24103;DHT22;12278;53.058;9.028;2023-05-10T11:10:04;16.80;99.90
24103;DHT22;12278;53.058;9.028;2023-05-10T11:14:07;17.60;99.90
24103;DHT22;12278;53.058;9.028;2023-05-10T11:18:17;17.70;99.90
24103;DHT22;12278;53.058;9.028;2023-05-10T11:22:19;16.90;99.90
24103;DHT22;12278;53.058;9.028;2023-05-10T11:26:19;16.30;99.90
24103;DHT22;12278;53.058;9.028;2023-05-10T11:30:23;15.90;99.90
24103;DHT22;12278;53.058;9.028;2023-05-10T11:38:32;16.00;99.90
24103;DHT22;12278;53.058;9.028;2023-05-10T11:42:33;16.20;99.90
24103;DHT22;12278;53.058;9.028;2023-05-10T11:46:34;16.40;99.90
24103;DHT22;12278;53.058;9.028;2023-05-10T11:50:36;17.30;99.90
24103;DHT22;12278;53.058;9.028;2023-05-10T11:54:37;17.70;99.90
24103;DHT22;12278;53.058;9.028;2023-05-10T11:58:39;17.60;99.90
24103;DHT22;12278;53.058;9.028;2023-05-10T12:02:40;18.10;99.90
24103;DHT22;12278;53.058;9.028;2023-05-10T12:06:41;17.80;99.90
24103;DHT22;12278;53.058;9.028;2023-05-10T12:10:42;17.70;99.90
24103;DHT22;12278;53.058;9.028;2023-05-10T12:14:42;18.30;99.90
24103;DHT22;12278;53.058;9.028;2023-05-10T12:18:44;17.70;99.90
24103;DHT22;12278;53.058;9.028;2023-05-10T12:22:50;17.30;99.90
24103;DHT22;12278;53.058;9.028;2023-05-10T12:26:51;17.00;99.90
24103;DHT22;12278;53.058;9.028;2023-05-10T12:30:53;17.00;99.90
24103;DHT22;12278;53.058;9.028;2023-05-10T12:34:54;16.40;99.90
24103;DHT22;12278;53.058;9.028;2023-05-10T12:39:02;15.80;99.90
24103;DHT22;12278;53.058;9.028;2023-05-10T12:43:04;15.50;99.90
24103;DHT22;12278;53.058;9.028;2023-05-10T12:47:05;15.40;99.90
24103;DHT22;12278;53.058;9.028;2023-05-10T12:51:07;15.60;99.90
24103;DHT22;12278;53.058;9.028;2023-05-10T12:55:12;15.70;99.90
24103;DHT22;12278;53.058;9.028;2023-05-10T12:59:12;15.90;99.90
24103;DHT22;12278;53.058;9.028;2023-05-10T13:03:13;15.90;99.90
24103;DHT22;12278;53.058;9.028;2023-05-10T13:07:15;15.90;99.90
24103;DHT22;12278;53.058;9.028;2023-05-10T13:11:15;16.10;99.90
24103;DHT22;12278;53.058;9.028;2023-05-10T13:15:17;16.60;99.90
24103;DHT22;12278;53.058;9.028;2023-05-10T13:19:18;16.50;99.90
24103;DHT22;12278;53.058;9.028;2023-05-10T13:23:18;16.50;99.90
24103;DHT22;12278;53.058;9.028;2023-05-10T13:27:19;16.30;99.90
24103;DHT22;12278;53.058;9.028;2023-05-10T13:31:20;16.20;99.90
24103;DHT22;12278;53.058;9.028;2023-05-10T13:35:21;16.10;99.90
24103;DHT22;12278;53.058;9.028;2023-05-10T13:39:22;16.00;99.90
24103;DHT22;12278;53.058;9.028;2023-05-10T13:43:23;16.40;99.90
24103;DHT22;12278;53.058;9.028;2023-05-10T13:47:24;17.40;99.90
24103;DHT22;12278;53.058;9.028;2023-05-10T13:51:25;16.90;99.90
24103;DHT22;12278;53.058;9.028;2023-05-10T13:55:25;16.60;99.90
24103;DHT22;12278;53.058;9.028;2023-05-10T13:59:26;16.70;99.90
24103;DHT22;12278;53.058;9.028;2023-05-10T14:03:27;16.40;99.90
24103;DHT22;12278;53.058;9.028;2023-05-10T14:07:27;16.20;99.90
24103;DHT22;12278;53.058;9.028;2023-05-10T14:11:28;16.30;99.90
24103;DHT22;12278;53.058;9.028;2023-05-10T14:15:29;17.10;99.90
24103;DHT22;12278;53.058;9.028;2023-05-10T14:19:29;17.30;99.90
24103;DHT22;12278;53.058;9.028;2023-05-10T14:23:32;17.20;99.90
24103;DHT22;12278;53.058;9.028;2023-05-10T14:27:33;16.90;99.90
24103;DHT22;12278;53.058;9.028;2023-05-10T14:31:34;17.10;99.90
24103;DHT22;12278;53.058;9.028;2023-05-10T14:35:35;17.10;99.90
24103;DHT22;12278;53.058;9.028;2023-05-10T14:39:36;17.20;99.90
24103;DHT22;12278;53.058;9.028;2023-05-10T14:43:37;17.90;99.90
24103;DHT22;12278;53.058;9.028;2023-05-10T14:47:38;18.30;99.90
24103;DHT22;12278;53.058;9.028;2023-05-10T14:51:39;19.40;99.90
24103;DHT22;12278;53.058;9.028;2023-05-10T14:55:40;21.10;99.90
24103;DHT22;12278;53.058;9.028;2023-05-10T14:59:40;22.60;99.90
24103;DHT22;12278;53.058;9.028;2023-05-10T15:03:41;21.50;99.90
24103;DHT22;12278;53.058;9.028;2023-05-10T15:07:42;21.00;99.90
24103;DHT22;12278;53.058;9.028;2023-05-10T15:11:44;21.40;99.90
24103;DHT22;12278;53.058;9.028;2023-05-10T15:15:44;19.90;99.90
24103;DHT22;12278;53.058;9.028;2023-05-10T15:19:45;19.20;99.90
24103;DHT22;12278;53.058;9.028;2023-05-10T15:23:46;19.10;99.90
24103;DHT22;12278;53.058;9.028;2023-05-10T15:27:46;18.80;99.90
24103;DHT22;12278;53.058;9.028;2023-05-10T15:31:47;18.20;99.90
24103;DHT22;12278;53.058;9.028;2023-05-10T15:35:48;17.80;99.90
24103;DHT22;12278;53.058;9.028;2023-05-10T15:39:49;17.70;99.90
24103;DHT22;12278;53.058;9.028;2023-05-10T15:43:50;17.70;99.90
24103;DHT22;12278;53.058;9.028;2023-05-10T15:47:50;18.30;99.90
24103;DHT22;12278;53.058;9.028;2023-05-10T15:51:51;21.50;99.90
24103;DHT22;12278;53.058;9.028;2023-05-10T15:55:52;21.80;99.90
24103;DHT22;12278;53.058;9.028;2023-05-10T15:59:53;21.20;99.90
24103;DHT22;12278;53.058;9.028;2023-05-10T16:03:53;21.50;99.90
24103;DHT22;12278;53.058;9.028;2023-05-10T16:07:54;23.50;99.90
24103;DHT22;12278;53.058;9.028;2023-05-10T16:11:55;22.20;99.90
24103;DHT22;12278;53.058;9.028;2023-05-10T16:15:56;20.70;99.90
24103;DHT22;12278;53.058;9.028;2023-05-10T16:19:57;19.30;99.90
24103;DHT22;12278;53.058;9.028;2023-05-10T16:23:59;18.70;99.90
24103;DHT22;12278;53.058;9.028;2023-05-10T16:28:00;18.10;99.90
24103;DHT22;12278;53.058;9.028;2023-05-10T16:32:01;17.60;99.90
24103;DHT22;12278;53.058;9.028;2023-05-10T16:36:01;17.80;99.90
24103;DHT22;12278;53.058;9.028;2023-05-10T16:40:02;18.30;99.90
24103;DHT22;12278;53.058;9.028;2023-05-10T16:44:03;18.20;99.90
24103;DHT22;12278;53.058;9.028;2023-05-10T16:48:05;17.80;99.90
24103;DHT22;12278;53.058;9.028;2023-05-10T16:52:05;17.90;99.90
24103;DHT22;12278;53.058;9.028;2023-05-10T16:56:06;18.00;99.90
24103;DHT22;12278;53.058;9.028;2023-05-10T17:00:07;18.70;99.90
24103;DHT22;12278;53.058;9.028;2023-05-10T17:04:08;19.30;99.90
24103;DHT22;12278;53.058;9.028;2023-05-10T17:08:09;19.30;99.90
24103;DHT22;12278;53.058;9.028;2023-05-10T17:12:10;19.20;99.90
24103;DHT22;12278;53.058;9.028;2023-05-10T17:16:10;18.80;99.90
24103;DHT22;12278;53.058;9.028;2023-05-10T17:20:11;18.30;99.90
24103;DHT22;12278;53.058;9.028;2023-05-10T17:24:13;17.70;99.90
24103;DHT22;12278;53.058;9.028;2023-05-10T17:28:13;17.60;99.90
24103;DHT22;12278;53.058;9.028;2023-05-10T17:32:14;17.30;99.90
24103;DHT22;12278;53.058;9.028;2023-05-10T17:36:15;17.30;99.90
24103;DHT22;12278;53.058;9.028;2023-05-10T17:40:15;17.50;99.90
24103;DHT22;12278;53.058;9.028;2023-05-10T17:44:16;17.60;99.90
24103;DHT22;12278;53.058;9.028;2023-05-10T17:48:17;17.60;99.90
24103;DHT22;12278;53.058;9.028;2023-05-10T17:52:17;17.40;99.90
24103;DHT22;12278;53.058;9.028;2023-05-10T17:56:18;17.30;99.90
24103;DHT22;12278;53.058;9.028;2023-05-10T18:00:19;17.20;99.90
24103;DHT22;12278;53.058;9.028;2023-05-10T18:04:20;17.30;99.90
24103;DHT22;12278;53.058;9.028;2023-05-10T18:08:22;17.20;99.90
24103;DHT22;12278;53.058;9.028;2023-05-10T18:12:26;17.30;99.90
24103;DHT22;12278;53.058;9.028;2023-05-10T18:16:26;17.20;99.90
24103;DHT22;12278;53.058;9.028;2023-05-10T18:20:27;16.90;99.90
24103;DHT22;12278;53.058;9.028;2023-05-10T18:24:28;16.90;99.90
24103;DHT22;12278;53.058;9.028;2023-05-10T18:28:29;16.80;99.90
24103;DHT22;12278;53.058;9.028;2023-05-10T18:32:29;16.60;99.90
24103;DHT22;12278;53.058;9.028;2023-05-10T18:36:30;16.50;99.90
24103;DHT22;12278;53.058;9.028;2023-05-10T18:40:32;16.30;99.90
24103;DHT22;12278;53.058;9.028;2023-05-10T18:44:33;16.20;99.90
24103;DHT22;12278;53.058;9.028;2023-05-10T18:48:34;16.00;99.90
24103;DHT22;12278;53.058;9.028;2023-05-10T18:52:34;15.80;99.90
24103;DHT22;12278;53.058;9.028;2023-05-10T18:56:37;15.80;99.90
24103;DHT22;12278;53.058;9.028;2023-05-10T19:00:43;15.70;99.90
24103;DHT22;12278;53.058;9.028;2023-05-10T19:04:44;15.60;99.90
24103;DHT22;12278;53.058;9.028;2023-05-10T19:08:45;15.50;99.90
24103;DHT22;12278;53.058;9.028;2023-05-10T19:12:46;15.40;99.90
24103;DHT22;12278;53.058;9.028;2023-05-10T19:16:46;15.30;99.90
24103;DHT22;12278;53.058;9.028;2023-05-10T19:20:47;15.30;99.90
24103;DHT22;12278;53.058;9.028;2023-05-10T19:24:48;15.10;99.90
24103;DHT22;12278;53.058;9.028;2023-05-10T19:28:52;15.10;99.90
24103;DHT22;12278;53.058;9.028;2023-05-10T19:32:53;14.90;99.90
24103;DHT22;12278;53.058;9.028;2023-05-10T19:36:54;14.80;99.90
24103;DHT22;12278;53.058;9.028;2023-05-10T19:40:55;14.70;99.90
24103;DHT22;12278;53.058;9.028;2023-05-10T19:44:58;14.70;99.90
24103;DHT22;12278;53.058;9.028;2023-05-10T19:48:59;14.60;99.90
24103;DHT22;12278;53.058;9.028;2023-05-10T19:52:59;14.50;99.90
24103;DHT22;12278;53.058;9.028;2023-05-10T19:57:00;14.50;99.90
24103;DHT22;12278;53.058;9.028;2023-05-10T20:01:01;14.40;99.90
24103;DHT22;12278;53.058;9.028;2023-05-10T20:05:02;14.40;99.90
24103;DHT22;12278;53.058;9.028;2023-05-10T20:09:03;14.40;99.90
24103;DHT22;12278;53.058;9.028;2023-05-10T20:13:03;14.30;99.90
24103;DHT22;12278;53.058;9.028;2023-05-10T20:17:04;14.30;99.90
24103;DHT22;12278;53.058;9.028;2023-05-10T20:21:05;14.30;99.90
24103;DHT22;12278;53.058;9.028;2023-05-10T20:25:06;14.30;99.90
24103;DHT22;12278;53.058;9.028;2023-05-10T20:29:07;14.20;99.90
24103;DHT22;12278;53.058;9.028;2023-05-10T20:33:08;14.00;99.90
24103;DHT22;12278;53.058;9.028;2023-05-10T20:37:09;14.00;99.90
24103;DHT22;12278;53.058;9.028;2023-05-10T20:41:10;14.00;99.90
24103;DHT22;12278;53.058;9.028;2023-05-10T20:45:10;14.00;99.90
24103;DHT22;12278;53.058;9.028;2023-05-10T20:49:11;13.90;99.90
24103;DHT22;12278;53.058;9.028;2023-05-10T20:53:12;14.00;99.90
24103;DHT22;12278;53.058;9.028;2023-05-10T20:57:18;13.90;99.90
24103;DHT22;12278;53.058;9.028;2023-05-10T21:01:19;13.90;99.90
24103;DHT22;12278;53.058;9.028;2023-05-10T21:05:20;13.90;99.90
24103;DHT22;12278;53.058;9.028;2023-05-10T21:09:20;13.90;99.90
24103;DHT22;12278;53.058;9.028;2023-05-10T21:13:21;13.80;99.90
24103;DHT22;12278;53.058;9.028;2023-05-10T21:17:22;13.80;99.90
24103;DHT22;12278;53.058;9.028;2023-05-10T21:21:22;13.80;99.90
24103;DHT22;12278;53.058;9.028;2023-05-10T21:25:23;13.80;99.90
24103;DHT22;12278;53.058;9.028;2023-05-10T21:29:24;13.80;99.90
24103;DHT22;12278;53.058;9.028;2023-05-10T21:33:25;13.70;99.90
24103;DHT22;12278;53.058;9.028;2023-05-10T21:37:26;13.70;99.90
24103;DHT22;12278;53.058;9.028;2023-05-10T21:41:26;13.70;99.90
24103;DHT22;12278;53.058;9.028;2023-05-10T21:45:28;13.70;99.90
24103;DHT22;12278;53.058;9.028;2023-05-10T21:49:32;13.70;99.90
24103;DHT22;12278;53.058;9.028;2023-05-10T21:53:32;13.70;99.90
24103;DHT22;12278;53.058;9.028;2023-05-10T21:57:35;13.60;99.90
24103;DHT22;12278;53.058;9.028;2023-05-10T22:01:35;13.50;99.90
24103;DHT22;12278;53.058;9.028;2023-05-10T22:05:36;13.50;99.90
24103;DHT22;12278;53.058;9.028;2023-05-10T22:09:37;13.50;99.90
24103;DHT22;12278;53.058;9.028;2023-05-10T22:13:37;13.40;99.90
24103;DHT22;12278;53.058;9.028;2023-05-10T22:17:39;13.50;99.90
24103;DHT22;12278;53.058;9.028;2023-05-10T22:21:40;13.40;99.90
24103;DHT22;12278;53.058;9.028;2023-05-10T22:25:40;13.40;99.90
24103;DHT22;12278;53.058;9.028;2023-05-10T22:29:41;13.40;99.90
24103;DHT22;12278;53.058;9.028;2023-05-10T22:33:42;13.40;99.90
24103;DHT22;12278;53.058;9.028;2023-05-10T22:37:42;13.40;99.90
24103;DHT22;12278;53.058;9.028;2023-05-10T22:41:43;13.40;99.90
24103;DHT22;12278;53.058;9.028;2023-05-10T22:45:43;13.40;99.90
24103;DHT22;12278;53.058;9.028;2023-05-10T22:49:44;13.40;99.90
24103;DHT22;12278;53.058;9.028;2023-05-10T22:53:45;13.40;99.90
24103;DHT22;12278;53.058;9.028;2023-05-10T22:57:45;13.30;99.90
24103;DHT22;12278;53.058;9.028;2023-05-10T23:01:46;13.30;99.90
24103;DHT22;12278;53.058;9.028;2023-05-10T23:05:48;13.30;99.90
24103;DHT22;12278;53.058;9.028;2023-05-10T23:09:48;13.20;99.90
24103;DHT22;12278;53.058;9.028;2023-05-10T23:13:49;13.20;99.90
24103;DHT22;12278;53.058;9.028;2023-05-10T23:17:51;13.20;99.90
24103;DHT22;12278;53.058;9.028;2023-05-10T23:21:52;13.20;99.90
24103;DHT22;12278;53.058;9.028;2023-05-10T23:25:52;13.20;99.90
24103;DHT22;12278;53.058;9.028;2023-05-10T23:29:53;13.10;99.90
24103;DHT22;12278;53.058;9.028;2023-05-10T23:33:55;13.10;99.90
24103;DHT22;12278;53.058;9.028;2023-05-10T23:37:56;13.10;99.90
24103;DHT22;12278;53.058;9.028;2023-05-10T23:41:56;13.00;99.90
24103;DHT22;12278;53.058;9.028;2023-05-10T23:45:57;13.00;99.90
24103;DHT22;12278;53.058;9.028;2023-05-10T23:49:58;13.00;99.90
24103;DHT22;12278;53.058;9.028;2023-05-10T23:53:59;12.90;99.90
24103;DHT22;12278;53.058;9.028;2023-05-10T23:57:59;13.00;99.90
